UKLU METAR and TAF | Updated Today

UKLU METAR

Uzhhorod International Airport

Observation time: 30 min. ago

UKLU 060730Z 00000MPS 2500 -RA BR OVC028 02/02 Q1005 NOSIG

Need help? Read our tutorial on how to read METARs or read the parsed version below.

Uzhhorod International Airport (UKLU) METAR

  • Weather conditions on Mon, 06 Dec 2021 07:30:00 +0000 (30 min. ago):
  • Present conditions: Light rain; mist
  • Clouds: Overcast sky at 853 meters
  • Visibility: 2500 meters
  • Wind: Calm
  • Temperature: 2 celsius
  • Dew point: 2 celsius
  • Pressure: 1005 millibars
  • Remarks: None


Useful to know...

UKLU TAF

Uzhhorod International Airport

TAF UKLU 060506Z 0606/0615 33003MPS 2100 -RA BR OVC018 TX04/0612Z TN01/0606Z TEMPO 0606/0612 1100 -SHSNRA BR BKN005 BKN015CB
Observation time: 2:54 hr. ago
Need help? Read our tutorial on how to read TAFs or read the parsed version below.

Parsed version of TAF for Uzhhorod International Airport (UKLU)

  • From 06 December at 06:00 UTC, to day 06 of the month at 15:00 UTC
  • Clouds: Overcast sky at 549 meters
  • Visibility: 2100 meters
  • Wind: 330 degrees at 3
  • Other: Light rain; mist
  • Expected to arise temporarily, from 06 December at 06:00 UTC, to day 06 of the month at 12:00 UTC
  • Clouds: Broken sky at 152 meters; broken sky at 457 meters, cumulonimbus
  • Visibility: 1100 meters
  • Other: Light showers of snow rain; mist